CheckWX is a tool to help pilots better visualize weather data.  It is not intended as a substitute for an official pre-flight weather briefing.

21:03:40 UTC

OLBA METAR
Beirut Rafic Hariri International Airport
Beirut, Lebanon
Current

1 hour ago

OLBA 082000Z 14004KT 7000 FEW023 BKN090 17/10 Q1016 NOSIG
Observed
Apr-8 @ 20:00 UTC
Wind
  • 140° at 4 KTS
Visibility
7001 meters
Flight Rules
MVFR
Cloud Levels
  • Few at 2,300' AGL
  • Broken at 9,000' AGL
Temperature
17°C / 63°F
Dewpoint
10°C / 50°F
Humidity
64%
Altimeter
30" Hg
Pressure
1015.92 hPa
Previous

2 hours ago

OLBA 081900Z 14003KT 7000 FEW023 BKN090 17/11 Q1017 NOSIG
Observed
Apr-8 @ 19:00 UTC
Wind
  • 140° at 3 KTS
Visibility
7001 meters
Flight Rules
MVFR
Cloud Levels
  • Few at 2,300' AGL
  • Broken at 9,000' AGL
Temperature
17°C / 63°F
Dewpoint
11°C / 52°F
Humidity
68%
Altimeter
30.03" Hg
Pressure
1016.92 hPa
Previous

3 hours ago

OLBA 081800Z 20003KT 160V230 8000 SCT026 17/11 Q1016 NOSIG
Observed
Apr-8 @ 18:00 UTC
Wind
  • 200° at 3 KTS
Visibility
7998 meters
Flight Rules
MVFR
Cloud Levels
  • Scattered at 2,600' AGL
Temperature
17°C / 63°F
Dewpoint
11°C / 52°F
Humidity
68%
Altimeter
30" Hg
Pressure
1015.92 hPa